Share

Albert, OK

12:52 AM CDT on April 24, 2014 (GMT -0500)
Peck's country (KOKANADA2) Elev 1255 ft | 35.10 °N, 98.32 °W | Change Station

Current weather conditions updated 1 minute ago

Clear
Clear
64.8 °F
Feels Like 64.8 °F
N
9.0
Wind Variable Wind from ESE
Gusts 16.0 mph
Sunrise 6:50 AM
Sunset 8:13 PM
Moon Waning Crescent

Today is forecast to be Much Cooler than yesterday.

Pressure 29.66 in
Visibility 10.0 miles
Clouds Clear
Dew Point 62 °F
Humidity 92%
Rainfall 0.00 in
Snow Depth Not available.
UV 0 out of 16
Pollen 9.90 out of 12
Air Quality Not available.
Flu Activity Regional
METAR KOJA 240535Z AUTO 14015G20KT 10SM CLR 18/16 A2966 RMK AO2

More Conditions Fewer Conditions

Pressure 29.66 in
Visibility 10.0 miles
Clouds Clear
Dew Point 62 °F
Humidity 92%
Rainfall 0.00 in
Snow Depth Not available.
UV 0 out of 16
Pollen 9.90 out of 12
Air Quality Not available.
Flu Activity Regional
METAR KOJA 240535Z AUTO 14015G20KT 10SM CLR 18/16 A2966 RMK AO2

More Conditions Fewer Conditions

10-Day Weather Forecast

Almanac

Astronomy

Apr. 24, 2014 Rise Set
Actual Time 6:50 AM CDT 8:13 PM CDT
Civil Twilight 6:23 AM CDT 8:40 PM CDT
Nautical Twilight 5:51 AM CDT 9:12 PM CDT
Astronomical Twilight 5:18 AM CDT 9:46 PM CDT
Moon 3:51 AM CDT 3:41 PM CDT
Length of Visible Light 14h 17m
Length of Day
13h 23m
Tomorrow will be 1m 59s longer.
Waning Crescent, 29% of the Moon is Illuminated
Today
Waning Crescent
Apr 29
New
May 6
First Quarter
May 14
Full
May 21
Last Quarter

Today's Extremes

State Highs State Lows

Community

  • Stacked
    Stacked
  • clouds approaching Red Sox Nation
    clouds approaching Red Sox Nation
  • Balance
    Balance
  • Nestled In
    Nestled In
  • Stunning Sunrise
    Stunning Sunrise

WunderPhotos

Upload Photos

1,704,572 photos uploaded!

WunderBlogs® & News

Nearby

Snow Depth

Station Depth Elevation
No new snow has been reported.

Coastal Water Temperatures

Place Temperature
No Stations Reporting

Earthquake Activity

City Distance Mag. Time & Date
Stillwater, Oklahoma 95 miles 2.8 5:30 PM CDT
2014-04-19
Enid, Oklahoma 99 miles 2.9 1:11 PM CDT
2014-04-19
Perry, Oklahoma 96 miles 4.0 5:43 AM CDT
2014-04-19
Stillwater, Oklahoma 96 miles 2.7 3:40 AM CDT
2014-04-19
Minimum magnitude displayed is 2.5.

Nearby Weather Stations

Station Location Temp. Dew Point Humidity Wind Precip. Elev Updated Type
Peck's country, Anadarko, OK 64.8 °F 62 °F 92% ESE  at  9.0 mph 0.00 in / hr 1255 ft 12:50 AM CDT Normal
Carnegie, Carnegie, OK 65.7 °F 61 °F 86% ESE  at  7.2 mph 0.00 in / hr 1358 ft 12:52 AM CDT Rapid Fire

Show More Stations Show Fewer Stations

What do you think?

We're not finished. Please let us know what you like, what you don't like, and what you are still missing.